Time;durP1;ratioP1;P1;durP2;ratioP2;P2;SDS_P1;SDS_P2;PMS_P1;PMS_P2;Temp;Humidity;BMP_temperature;BMP_pressure;BME280_temperature;BME280_humidity;BME280_pressure;Samples;Min_cycle;Max_cycle;Signal;HPM_P1;HPM_P2
2023/10/15 00:02:34;;;;;;;3.40;1.42;;;;;;;5.74;100.00;101567.63;4948778;28;20545;-88
2023/10/15 00:05:22;;;;;;;5.65;1.70;;;;;;;5.83;100.00;101587.28;4881525;29;20045;-88
2023/10/15 00:07:48;;;;;;;5.78;1.90;;;;;;;5.83;100.00;101583.78;4911376;29;20117;-90
2023/10/15 00:13:26;;;;;;;3.80;1.60;;;;;;;5.84;100.00;101586.28;4944129;29;20368;-89
2023/10/15 00:15:56;;;;;;;4.72;1.55;;;;;;;5.87;100.00;101579.84;4956090;29;20033;-86
2023/10/15 00:18:22;;;;;;;3.92;1.10;;;;;;;5.82;100.00;101574.94;4953511;29;20034;-83
2023/10/15 00:20:48;;;;;;;;;;;;;;;5.83;100.00;101586.47;4955491;29;20027;-83
2023/10/15 00:23:17;;;;;;;3.50;1.10;;;;;;;5.77;100.00;101575.34;4955948;29;19914;-84
2023/10/15 00:25:49;;;;;;;3.83;1.00;;;;;;;5.78;100.00;101578.88;4955139;29;20130;-84
2023/10/15 00:28:20;;;;;;;3.40;1.10;;;;;;;5.77;100.00;101578.03;4956264;29;20425;-84
2023/10/15 00:30:46;;;;;;;1.45;1.17;;;;;;;5.72;100.00;101580.31;4955999;29;20102;-84
2023/10/15 00:33:20;;;;;;;;;;;;;;;5.68;100.00;101575.41;4995152;23;20515;-83
2023/10/15 00:35:57;;;;;;;3.53;1.10;;;;;;;5.69;100.00;101577.09;4927141;29;19918;-84
2023/10/15 00:38:24;;;;;;;3.75;1.17;;;;;;;5.66;100.00;101574.69;4916981;29;20024;-83
2023/10/15 00:41:07;;;;;;;2.00;1.00;;;;;;;5.65;100.00;101579.22;4914862;29;20058;-83
2023/10/15 00:43:35;;;;;;;2.80;1.10;;;;;;;5.64;100.00;101576.69;4917963;29;20131;-83
2023/10/15 00:46:17;;;;;;;2.08;1.05;;;;;;;5.63;100.00;101578.50;4935239;29;20106;-83
2023/10/15 00:48:49;;;;;;;2.30;1.40;;;;;;;5.59;100.00;101577.97;4897287;29;20032;-84
2023/10/15 00:51:20;;;;;;;3.92;1.40;;;;;;;5.67;100.00;101579.06;4916457;29;20587;-84
2023/10/15 00:54:09;;;;;;;1.27;0.90;;;;;;;5.72;100.00;101566.09;4907419;29;20027;-85
2023/10/15 00:57:15;;;;;;;2.22;1.00;;;;;;;5.75;100.00;101571.16;4898834;29;20146;-85
2023/10/15 00:59:48;;;;;;;1.15;0.70;;;;;;;5.69;100.00;101561.06;4919377;29;20031;-84
2023/10/15 01:02:22;;;;;;;2.13;1.00;;;;;;;5.70;100.00;101562.75;4943862;23;20179;-85
2023/10/15 01:04:51;;;;;;;2.88;1.00;;;;;;;5.66;100.00;101580.91;4965187;23;20046;-84
2023/10/15 01:13:21;;;;;;;2.15;1.27;;;;;;;5.55;100.00;101555.22;4973681;28;20115;-85
2023/10/15 01:15:52;;;;;;;2.30;1.05;;;;;;;5.61;100.00;101543.09;4975093;28;20169;-83
2023/10/15 01:18:23;;;;;;;2.00;1.10;;;;;;;5.57;100.00;101531.00;4958452;28;20507;-83
2023/10/15 01:20:54;;;;;;;1.10;0.70;;;;;;;5.54;100.00;101526.00;4994603;23;20059;-83
2023/10/15 01:23:31;;;;;;;1.90;0.82;;;;;;;5.58;100.00;101528.22;4973758;28;20047;-83
2023/10/15 01:26:23;;;;;;;1.00;0.90;;;;;;;5.79;100.00;101510.25;4966890;28;20047;-83
2023/10/15 01:28:51;;;;;;;1.92;0.70;;;;;;;5.66;100.00;101498.09;4967334;28;20058;-82
2023/10/15 01:31:17;;;;;;;2.40;1.10;;;;;;;5.68;100.00;101505.94;4969804;28;20035;-82
2023/10/15 01:33:50;;;;;;;;;;;;;;;5.72;100.00;101499.31;4970206;28;20030;-82
2023/10/15 01:36:47;;;;;;;3.05;1.00;;;;;;;5.59;100.00;101494.31;4972766;28;19925;-83
2023/10/15 01:39:37;;;;;;;2.17;0.90;;;;;;;5.63;100.00;101498.38;4973390;28;20106;-83
2023/10/15 01:44:54;;;;;;;2.65;0.90;;;;;;;5.70;100.00;101491.47;4969821;28;20051;-82
2023/10/15 01:47:20;;;;;;;1.95;0.80;;;;;;;5.60;100.00;101499.53;4975637;28;20126;-83
2023/10/15 01:49:56;;;;;;;2.65;0.98;;;;;;;5.58;100.00;101496.16;4971248;28;20496;-82
2023/10/15 01:55:28;;;;;;;2.13;1.00;;;;;;;5.55;100.00;101492.97;4917630;29;20630;-82
2023/10/15 01:57:54;;;;;;;3.63;1.30;;;;;;;5.57;100.00;101499.81;4928557;28;20073;-82
2023/10/15 02:03:25;;;;;;;2.63;1.10;;;;;;;5.56;100.00;101495.47;4974979;28;19924;-82
2023/10/15 02:06:19;;;;;;;2.33;0.93;;;;;;;5.60;100.00;101493.34;4962720;28;20349;-82
2023/10/15 02:09:22;;;;;;;1.58;0.82;;;;;;;5.62;100.00;101496.69;4959911;28;20050;-82
2023/10/15 02:11:48;;;;;;;3.25;1.30;;;;;;;5.56;100.00;101492.78;4970722;28;20039;-82
2023/10/15 02:14:27;;;;;;;2.22;1.23;;;;;;;5.46;100.00;101486.69;4975623;28;20027;-82
2023/10/15 02:16:53;;;;;;;2.30;1.20;;;;;;;5.40;100.00;101500.59;4967786;28;20065;-82
2023/10/15 02:22:22;;;;;;;0.90;0.85;;;;;;;5.25;100.00;101495.75;4922308;29;20238;-82
2023/10/15 02:24:56;;;;;;;2.40;1.08;;;;;;;5.34;100.00;101498.50;4919898;29;20036;-82
2023/10/15 02:27:24;;;;;;;3.40;0.98;;;;;;;5.28;100.00;101500.78;4937483;29;20043;-82
2023/10/15 02:29:53;;;;;;;2.80;0.80;;;;;;;5.27;100.00;101508.94;4966876;28;20526;-82
2023/10/15 02:35:24;;;;;;;2.20;1.00;;;;;;;5.32;100.00;101496.81;4974282;28;20099;-82
2023/10/15 02:37:52;;;;;;;1.45;1.17;;;;;;;5.38;100.00;101495.41;4957450;29;20027;-82
2023/10/15 02:40:17;;;;;;;2.42;1.23;;;;;;;5.34;100.00;101498.50;4970482;28;20169;-82
2023/10/15 02:42:54;;;;;;;;;;;;;;;5.36;100.00;101502.72;4975485;28;20035;-83
2023/10/15 02:45:23;;;;;;;1.73;0.77;;;;;;;5.33;100.00;101508.34;4979289;28;20002;-82
2023/10/15 02:47:55;;;;;;;1.25;1.08;;;;;;;5.35;100.00;101509.06;4976091;28;20027;-82
2023/10/15 02:50:23;;;;;;;2.60;1.15;;;;;;;5.32;100.00;101517.34;4977476;28;20130;-82
2023/10/15 02:52:56;;;;;;;1.52;0.90;;;;;;;5.36;100.00;101515.22;4978811;28;20026;-81
2023/10/15 02:55:27;;;;;;;2.20;1.05;;;;;;;5.43;100.00;101522.50;4975190;28;20115;-81
2023/10/15 02:58:02;;;;;;;;;;;;;;;5.45;100.00;101519.69;4977180;28;20023;-82
2023/10/15 03:03:50;;;;;;;2.20;0.93;;;;;;;5.50;100.00;101530.75;4976185;28;20057;-82
2023/10/15 03:06:24;;;;;;;1.30;1.00;;;;;;;5.53;100.00;101518.97;4974307;28;21001;-82
2023/10/15 03:08:59;;;;;;;3.33;0.98;;;;;;;5.57;100.00;101521.19;4973428;28;20050;-84
2023/10/15 03:11:25;;;;;;;1.15;1.02;;;;;;;5.60;100.00;101504.88;4938177;28;20046;-83
2023/10/15 03:13:53;;;;;;;2.38;1.40;;;;;;;5.64;100.00;101516.09;4971677;28;20118;-83
2023/10/15 03:16:22;;;;;;;1.35;1.00;;;;;;;5.70;100.00;101509.31;4964634;28;20030;-83
2023/10/15 03:18:49;;;;;;;1.10;0.95;;;;;;;5.67;100.00;101512.28;4970517;28;20026;-83
2023/10/15 03:21:24;;;;;;;1.30;0.98;;;;;;;5.65;100.00;101511.59;4970428;28;20173;-83
2023/10/15 03:23:50;;;;;;;2.55;1.40;;;;;;;5.58;100.00;101498.84;4953430;28;20053;-83
2023/10/15 03:26:21;;;;;;;;;;;;;;;5.65;100.00;101500.94;4972320;28;20101;-83
2023/10/15 03:32:17;;;;;;;2.83;1.00;;;;;;;5.67;100.00;101517.63;4969058;28;20037;-81
2023/10/15 03:34:59;;;;;;;1.88;1.13;;;;;;;5.60;100.00;101514.69;4972109;28;20053;-81
2023/10/15 03:37:27;;;;;;;1.67;1.20;;;;;;;5.54;100.00;101521.47;4965827;28;20102;-82
2023/10/15 03:39:55;;;;;;;1.83;1.17;;;;;;;5.53;100.00;101521.63;4970338;28;20019;-81
2023/10/15 03:42:26;;;;;;;2.08;1.20;;;;;;;5.52;100.00;101519.94;4973457;28;20053;-81
2023/10/15 03:45:00;;;;;;;2.78;1.30;;;;;;;5.57;100.00;101520.31;4970918;28;20019;-81
2023/10/15 03:47:26;;;;;;;2.13;1.30;;;;;;;5.55;100.00;101522.34;4973368;28;20033;-81
2023/10/15 03:49:51;;;;;;;;;;;;;;;5.57;100.00;101520.31;4971977;28;20027;-81
2023/10/15 03:52:20;;;;;;;3.33;1.33;;;;;;;5.52;100.00;101518.09;4975287;28;19994;-83
2023/10/15 03:54:48;;;;;;;2.95;1.40;;;;;;;5.53;100.00;101525.13;4972970;28;20061;-82
2023/10/15 03:57:28;;;;;;;1.80;1.40;;;;;;;5.55;100.00;101514.31;4962980;28;20340;-84
2023/10/15 04:05:53;;;;;;;1.88;1.40;;;;;;;5.66;100.00;101523.94;4891835;29;20043;-81
2023/10/15 04:08:25;;;;;;;2.75;1.65;;;;;;;5.76;100.00;101525.59;4907235;29;20044;-81
2023/10/15 04:10:57;;;;;;;3.25;1.50;;;;;;;5.65;100.00;101527.63;4921430;29;20436;-81
2023/10/15 04:13:27;;;;;;;2.85;1.60;;;;;;;5.70;100.00;101530.69;4910579;28;20045;-82
2023/10/15 04:16:20;;;;;;;2.88;1.40;;;;;;;5.61;100.00;101532.41;4970284;28;20031;-82
2023/10/15 04:18:51;;;;;;;5.88;2.22;;;;;;;5.57;100.00;101531.00;4973676;28;20047;-82
2023/10/15 04:21:20;;;;;;;6.53;1.92;;;;;;;5.58;100.00;101538.91;4973516;28;20063;-82
2023/10/15 04:23:49;;;;;;;3.05;1.52;;;;;;;5.58;100.00;101544.25;4973700;28;20034;-82
2023/10/15 04:26:23;;;;;;;2.00;1.80;;;;;;;5.58;100.00;101532.69;4972388;28;20058;-81
2023/10/15 04:29:16;;;;;;;2.38;1.67;;;;;;;5.57;100.00;101536.34;4955656;28;20041;-81
2023/10/15 04:31:44;;;;;;;3.65;1.70;;;;;;;5.63;100.00;101529.59;4972483;28;20031;-81
2023/10/15 04:34:18;;;;;;;4.60;2.10;;;;;;;5.62;100.00;101542.09;4971317;28;20051;-83
2023/10/15 04:36:54;;;;;;;3.97;1.90;;;;;;;5.63;100.00;101549.13;4973450;28;20019;-81
2023/10/15 04:39:21;;;;;;;4.43;1.87;;;;;;;5.68;100.00;101544.19;4955473;28;20035;-81
2023/10/15 04:42:01;;;;;;;4.50;1.83;;;;;;;5.69;100.00;101529.84;4972038;28;20034;-81
2023/10/15 04:44:31;;;;;;;6.50;1.80;;;;;;;5.73;100.00;101541.06;4972099;28;20060;-83
2023/10/15 04:47:18;;;;;;;3.88;1.70;;;;;;;5.91;100.00;101519.75;4947083;28;20304;-83
2023/10/15 04:49:57;;;;;;;2.33;1.53;;;;;;;5.82;100.00;101524.19;4970121;28;20054;-81
2023/10/15 04:52:35;;;;;;;2.53;1.70;;;;;;;5.83;100.00;101519.66;4973316;28;20019;-81
2023/10/15 04:55:17;;;;;;;3.58;1.40;;;;;;;5.78;100.00;101517.44;4967716;28;20035;-81
2023/10/15 04:57:48;;;;;;;4.20;1.42;;;;;;;5.69;100.00;101512.97;4953111;28;20038;-83
2023/10/15 05:00:25;;;;;;;2.42;1.55;;;;;;;5.64;100.00;101516.09;4970707;28;20031;-81
2023/10/15 05:02:52;;;;;;;2.85;1.63;;;;;;;5.73;100.00;101501.88;4963779;28;20129;-81
2023/10/15 05:05:32;;;;;;;1.40;1.30;;;;;;;5.70;100.00;101504.81;4952341;23;20067;-81
2023/10/15 05:08:00;;;;;;;4.10;1.45;;;;;;;5.70;100.00;101503.97;4913314;29;20067;-81
2023/10/15 05:10:50;;;;;;;1.85;1.20;;;;;;;5.72;100.00;101515.34;4911322;29;20533;-81
2023/10/15 05:16:24;;;;;;;2.20;1.23;;;;;;;5.57;100.00;101515.00;4906828;29;20107;-80
2023/10/15 05:19:17;;;;;;;2.20;1.60;;;;;;;5.57;100.00;101515.84;4911419;29;20036;-81
2023/10/15 05:21:49;;;;;;;2.38;1.40;;;;;;;5.50;100.00;101503.22;4912991;29;20028;-81
2023/10/15 05:24:20;;;;;;;3.50;1.80;;;;;;;5.43;100.00;101506.47;4896689;29;20055;-81
2023/10/15 05:26:52;;;;;;;4.53;2.00;;;;;;;5.40;100.00;101505.94;4913786;29;20043;-81
2023/10/15 05:29:23;;;;;;;4.43;1.90;;;;;;;5.39;100.00;101509.59;4912693;29;20069;-83
2023/10/15 05:31:49;;;;;;;4.38;2.03;;;;;;;5.37;100.00;101509.75;4910117;29;20119;-81
2023/10/15 05:34:23;;;;;;;;;;;;;;;5.32;100.00;101512.00;4913749;29;20503;-81
2023/10/15 05:37:19;;;;;;;2.60;2.05;;;;;;;5.34;100.00;101526.06;4912071;29;19922;-81
2023/10/15 05:39:45;;;;;;;3.03;1.90;;;;;;;5.31;100.00;101526.34;4914733;29;20126;-80
2023/10/15 05:42:16;;;;;;;;;;;;;;;5.37;100.00;101531.13;4915733;29;20028;-80
2023/10/15 05:44:41;;;;;;;1.95;1.70;;;;;;;5.36;100.00;101524.09;4909509;29;19926;-80
2023/10/15 05:47:22;;;;;;;;;;;;;;;5.37;100.00;101525.78;4914207;29;20028;-80
2023/10/15 05:49:48;;;;;;;3.00;1.67;;;;;;;5.34;100.00;101538.56;4916268;29;19936;-81
2023/10/15 05:52:46;;;;;;;;;;;;;;;5.36;100.00;101549.94;4920341;23;20124;-81
2023/10/15 05:59:15;;;;;;;2.85;1.17;;;;;;;5.40;100.00;101559.34;4921441;29;20047;-81
2023/10/15 06:01:47;;;;;;;1.73;1.20;;;;;;;5.39;100.00;101555.00;4911521;29;20111;-82
2023/10/15 06:04:16;;;;;;;2.28;1.10;;;;;;;5.41;100.00;101555.69;4917322;29;20407;-82
2023/10/15 06:06:57;;;;;;;1.40;1.00;;;;;;;5.44;100.00;101537.53;4924688;29;20032;-81
2023/10/15 06:09:23;;;;;;;1.75;1.05;;;;;;;5.42;100.00;101528.00;5333063;23;20859;-82
2023/10/15 06:15:30;;;;;;;2.22;1.15;;;;;;;5.40;100.00;101529.97;4956091;28;19925;-83
2023/10/15 06:17:58;;;;;;;2.30;1.48;;;;;;;5.40;100.00;101548.66;4959331;28;20038;-83
2023/10/15 06:24:04;;;;;;;1.52;0.93;;;;;;;5.49;100.00;101549.63;5399263;23;20078;-88
2023/10/15 06:36:55;;;;;;;1.98;0.90;;;;;;;5.51;100.00;101575.19;4898127;29;20341;-90
2023/10/15 06:39:21;;;;;;;;;;;;;;;5.50;100.00;101588.69;4921003;29;20036;-90
2023/10/15 06:42:02;;;;;;;0.98;0.85;;;;;;;5.41;100.00;101580.53;4919142;23;19931;-90
2023/10/15 06:44:40;;;;;;;1.08;0.80;;;;;;;5.47;100.00;101584.50;4923437;29;20036;-90
2023/10/15 06:47:17;;;;;;;1.00;0.73;;;;;;;5.49;100.00;101585.16;4912221;29;20506;-88
2023/10/15 06:49:53;;;;;;;1.60;1.00;;;;;;;5.70;100.00;101573.44;4916868;29;20088;-89
2023/10/15 06:52:22;;;;;;;1.60;0.80;;;;;;;5.89;100.00;101584.03;4910162;29;20043;-88
2023/10/15 06:54:48;;;;;;;1.15;0.80;;;;;;;5.79;100.00;101588.59;4915584;29;20068;-91
2023/10/15 06:57:16;;;;;;;;;;;;;;;5.73;100.00;101606.06;4918622;29;20028;-90
2023/10/15 06:59:44;;;;;;;2.60;1.25;;;;;;;5.58;100.00;101618.16;4915095;29;20315;-80
2023/10/15 07:02:32;;;;;;;1.13;1.00;;;;;;;5.60;100.00;101626.88;4913565;29;20033;-85
2023/10/15 07:05:20;;;;;;;1.83;1.00;;;;;;;5.72;100.00;101633.75;4932352;29;20107;-83
2023/10/15 07:07:57;;;;;;;1.08;0.80;;;;;;;5.83;100.00;101629.22;4926113;29;20036;-86
2023/10/15 07:10:23;;;;;;;1.48;0.90;;;;;;;5.90;100.00;101644.50;4910284;29;20435;-87
2023/10/15 07:12:51;;;;;;;;;;;;;;;6.01;100.00;101648.88;4924619;29;20099;-88
2023/10/15 07:15:25;;;;;;;1.92;0.90;;;;;;;6.08;100.00;101643.75;4917708;29;19954;-90
2023/10/15 07:17:51;;;;;;;1.88;0.80;;;;;;;5.99;100.00;101653.47;4913887;29;20104;-89
2023/10/15 07:20:28;;;;;;;;;;;;;;;6.04;100.00;101655.72;4916671;29;20027;-90
2023/10/15 07:22:54;;;;;;;2.17;0.93;;;;;;;5.90;100.00;101655.19;4916254;29;19966;-88
2023/10/15 07:25:21;;;;;;;;;;;;;;;5.94;100.00;101662.94;4919748;29;20295;-88
2023/10/15 07:27:48;;;;;;;2.50;1.00;;;;;;;6.00;100.00;101671.22;4917212;29;20387;-88
2023/10/15 07:30:14;;;;;;;2.55;1.10;;;;;;;6.04;100.00;101666.41;4919404;29;20031;-89
2023/10/15 07:32:50;;;;;;;;;;;;;;;6.08;100.00;101683.84;4940951;23;20062;-89
2023/10/15 07:35:18;;;;;;;2.97;1.10;;;;;;;5.99;100.00;101679.38;4946984;29;20429;-89
2023/10/15 07:41:22;;;;;;;1.33;1.00;;;;;;;6.22;100.00;101698.59;4941828;29;20523;-88
2023/10/15 07:44:22;;;;;;;1.85;1.13;;;;;;;6.26;100.00;101707.16;4943970;29;20034;-88
2023/10/15 07:46:52;;;;;;;2.47;1.30;;;;;;;6.10;100.00;101711.28;4938286;29;20031;-91
2023/10/15 07:49:39;;;;;;;2.50;1.20;;;;;;;6.17;100.00;101720.44;4936175;29;20048;-90
2023/10/15 07:52:12;;;;;;;2.13;1.40;;;;;;;6.19;100.00;101723.75;4926144;29;20078;-86
2023/10/15 07:54:58;;;;;;;1.90;1.20;;;;;;;6.24;100.00;101722.50;4922818;29;20054;-87
2023/10/15 07:57:23;;;;;;;2.60;1.30;;;;;;;6.36;100.00;101734.69;4935201;29;20055;-84
2023/10/15 08:00:33;;;;;;;;;;;;;;;6.38;100.00;101735.38;4934118;29;20020;-85
2023/10/15 08:03:26;;;;;;;1.42;1.10;;;;;;;6.38;100.00;101727.34;4933621;29;19930;-87
2023/10/15 08:05:51;;;;;;;1.35;1.08;;;;;;;6.37;100.00;101712.28;4931825;29;20138;-83
2023/10/15 08:08:19;;;;;;;;;;;;;;;6.43;100.00;101717.06;4937953;29;20035;-86
2023/10/15 08:10:44;;;;;;;4.53;1.10;;;;;;;6.48;100.00;101713.94;4935103;29;20391;-87
2023/10/15 08:13:10;;;;;;;;;;;;;;;6.64;100.00;101726.69;4940917;29;20122;-86
2023/10/15 08:15:36;;;;;;;1.52;1.05;;;;;;;6.91;100.00;101723.13;4935663;29;19918;-84
2023/10/15 08:18:01;;;;;;;;;;;;;;;7.11;100.00;101726.50;4932140;29;20023;-85
2023/10/15 08:20:28;;;;;;;1.98;1.02;;;;;;;7.18;100.00;101725.91;4945384;29;20366;-85
2023/10/15 08:22:53;;;;;;;2.75;1.10;;;;;;;7.20;100.00;101729.28;4944155;29;20031;-86
2023/10/15 08:25:25;;;;;;;;;;;;;;;7.41;100.00;101729.78;4932678;29;20055;-84
2023/10/15 08:27:50;;;;;;;1.70;1.00;;;;;;;7.79;100.00;101742.13;4932696;29;19925;-84
2023/10/15 08:30:17;;;;;;;2.25;1.00;;;;;;;8.23;100.00;101755.50;4940695;29;20036;-85
2023/10/15 08:32:45;;;;;;;1.50;0.85;;;;;;;9.04;96.61;101756.03;4932904;29;20048;-84
2023/10/15 08:35:13;;;;;;;2.33;0.88;;;;;;;9.33;92.25;101753.88;4933626;29;20027;-85
2023/10/15 08:37:42;;;;;;;1.38;0.95;;;;;;;9.18;90.17;101767.94;4932866;29;20024;-84
2023/10/15 08:40:08;;;;;;;1.63;0.90;;;;;;;8.91;90.82;101764.53;4931769;29;20023;-84
2023/10/15 08:43:11;;;;;;;1.20;0.82;;;;;;;8.48;91.97;101769.91;4910900;29;20024;-83
2023/10/15 08:45:38;;;;;;;4.55;1.83;;;;;;;8.25;95.46;101776.78;4900265;29;20050;-83
2023/10/15 08:48:05;;;;;;;4.82;2.40;;;;;;;8.18;93.10;101785.50;4928361;29;20031;-84
2023/10/15 08:50:32;;;;;;;2.38;1.27;;;;;;;8.22;92.69;101774.41;4935214;29;20042;-86
2023/10/15 08:52:57;;;;;;;3.20;1.58;;;;;;;8.58;92.06;101777.00;4935057;29;20031;-84
2023/10/15 08:58:06;;;;;;;2.53;0.80;;;;;;;8.56;87.29;101782.53;4952671;29;20133;-82
2023/10/15 09:00:32;;;;;;;1.85;0.70;;;;;;;8.08;91.13;101790.09;4948694;29;20102;-82
2023/10/15 09:03:23;;;;;;;4.30;1.70;;;;;;;8.17;91.97;101793.69;4933817;29;20019;-82
2023/10/15 09:05:57;;;;;;;1.83;1.23;;;;;;;7.86;93.96;101789.59;4947185;29;20090;-83
2023/10/15 09:08:28;;;;;;;1.63;1.00;;;;;;;7.86;94.04;101797.66;4933310;29;20031;-85
2023/10/15 09:10:57;;;;;;;2.15;1.08;;;;;;;7.79;94.93;101795.75;4951028;29;20038;-84
2023/10/15 09:13:25;;;;;;;2.40;1.03;;;;;;;7.84;94.05;101804.16;4941405;23;1117695;-85
2023/10/15 09:19:25;;;;;;;1.58;0.80;;;;;;;7.89;95.12;101815.28;4910175;23;20492;-84
2023/10/15 09:22:16;;;;;;;1.77;0.90;;;;;;;7.92;95.61;101825.69;4889184;29;20514;-83
2023/10/15 09:24:50;;;;;;;1.95;1.23;;;;;;;8.24;96.07;101826.06;4896806;29;20497;-83
2023/10/15 09:27:27;;;;;;;1.92;0.98;;;;;;;8.33;91.48;101841.25;4918907;23;20057;-84
2023/10/15 09:30:20;;;;;;;0.77;0.65;;;;;;;8.40;91.92;101853.00;4921136;23;20374;-84
2023/10/15 09:32:48;;;;;;;3.00;1.10;;;;;;;8.39;92.49;101845.97;4902699;29;20035;-85
2023/10/15 09:35:26;;;;;;;2.28;0.90;;;;;;;8.56;92.10;101841.56;4910016;29;20032;-84
2023/10/15 09:38:00;;;;;;;1.45;0.70;;;;;;;8.80;90.96;101840.03;4926658;29;20035;-84
2023/10/15 09:43:23;;;;;;;1.70;0.57;;;;;;;9.61;85.32;101844.97;4907621;29;20067;-83
2023/10/15 09:49:18;;;;;;;2.97;0.80;;;;;;;9.72;83.44;101844.63;4915698;29;20519;-84
2023/10/15 09:55:49;;;;;;;3.35;0.80;;;;;;;9.96;82.70;101834.88;4906652;29;20094;-83
2023/10/15 09:58:26;;;;;;;1.60;0.90;;;;;;;9.86;80.73;101827.84;4912649;29;20043;-83
2023/10/15 10:01:25;;;;;;;2.75;1.33;;;;;;;9.67;78.86;101825.47;4908802;29;20527;-85
2023/10/15 10:04:19;;;;;;;2.72;1.00;;;;;;;9.67;82.27;101838.94;4905719;29;20560;-85
2023/10/15 10:07:05;;;;;;;1.52;0.90;;;;;;;9.57;83.98;101839.06;4915952;29;20504;-84
2023/10/15 10:10:23;;;;;;;1.20;0.93;;;;;;;9.55;82.58;101838.41;4929988;29;20040;-84
2023/10/15 10:13:20;;;;;;;;;;;;;;;9.58;81.11;101853.34;4916672;29;20036;-84
2023/10/15 10:19:31;;;;;;;1.85;0.90;;;;;;;9.04;83.72;101855.41;4914716;29;20043;-85
2023/10/15 10:22:25;;;;;;;0.70;0.63;;;;;;;8.97;84.02;101854.34;4890658;29;20028;-84
2023/10/15 10:24:53;;;;;;;2.95;0.70;;;;;;;9.20;82.68;101854.59;4904092;29;20043;-83
2023/10/15 10:27:19;;;;;;;2.83;1.73;;;;;;;9.17;83.13;101864.84;4917736;29;20032;-84
2023/10/15 10:29:54;;;;;;;2.03;1.33;;;;;;;9.02;84.06;101872.66;4913869;29;20319;-83
2023/10/15 10:32:22;;;;;;;1.77;0.75;;;;;;;9.14;82.23;101860.66;4901316;29;20056;-82
2023/10/15 10:35:23;;;;;;;1.40;0.65;;;;;;;9.24;82.82;101866.72;4908261;29;20119;-82
2023/10/15 10:38:23;;;;;;;0.38;0.32;;;;;;;9.59;79.49;101873.84;4914979;29;20036;-82
2023/10/15 10:41:48;;;;;;;1.05;0.50;;;;;;;10.05;79.21;101866.19;4933678;29;20027;-82
2023/10/15 10:44:22;;;;;;;1.10;0.70;;;;;;;9.95;76.92;101873.56;4896453;29;20100;-84
2023/10/15 10:46:54;;;;;;;1.40;0.50;;;;;;;9.69;78.81;101878.06;4902314;29;20210;-84
2023/10/15 10:49:55;;;;;;;2.17;0.55;;;;;;;9.53;80.44;101876.19;4906921;29;20055;-83
2023/10/15 10:52:27;;;;;;;1.27;0.50;;;;;;;9.50;81.10;101876.53;4850256;29;20057;-84
2023/10/15 10:57:53;;;;;;;1.60;0.68;;;;;;;9.58;81.18;101872.16;4872089;29;20048;-84
2023/10/15 11:00:30;;;;;;;2.03;0.75;;;;;;;10.06;80.45;101883.97;4915913;29;20044;-84
2023/10/15 11:03:06;;;;;;;1.38;0.73;;;;;;;10.23;78.23;101878.63;4908703;29;20036;-84
2023/10/15 11:06:00;;;;;;;6.18;1.10;;;;;;;11.36;75.55;101879.47;4906451;29;20062;-84
2023/10/15 11:08:25;;;;;;;1.55;0.90;;;;;;;12.30;69.34;101877.66;4900513;29;20031;-84
2023/10/15 11:10:51;;;;;;;1.98;1.08;;;;;;;12.59;64.94;101879.56;4905358;29;20028;-84
2023/10/15 11:13:16;;;;;;;2.13;0.90;;;;;;;12.81;63.04;101875.09;4885550;29;20497;-84
2023/10/15 11:15:51;;;;;;;2.00;0.90;;;;;;;14.16;60.08;101879.28;4904593;29;20036;-84
2023/10/15 11:18:35;;;;;;;3.45;0.80;;;;;;;14.10;59.67;101876.34;4903484;29;20096;-84
2023/10/15 11:21:00;;;;;;;2.95;0.90;;;;;;;15.37;54.04;101871.84;4923033;29;20119;-84
2023/10/15 11:23:26;;;;;;;1.95;0.70;;;;;;;15.20;52.82;101887.69;4922633;29;20031;-84
2023/10/15 11:25:55;;;;;;;2.15;0.88;;;;;;;14.63;54.64;101883.19;4905817;29;20139;-83
2023/10/15 11:28:24;;;;;;;3.67;0.98;;;;;;;14.13;56.04;101885.06;4894076;29;20036;-84
2023/10/15 11:34:44;;;;;;;1.10;0.77;;;;;;;14.97;53.61;101894.22;4864279;29;20169;-85
2023/10/15 11:37:24;;;;;;;2.65;1.10;;;;;;;14.93;53.26;101891.09;4856370;29;20451;-84
2023/10/15 11:39:59;;;;;;;1.77;0.77;;;;;;;14.84;54.20;101897.72;4862814;29;20072;-85
2023/10/15 11:42:25;;;;;;;1.80;1.07;;;;;;;15.26;53.03;101895.84;4930302;23;20051;-84
2023/10/15 11:44:56;;;;;;;3.35;2.00;;;;;;;15.76;51.42;101892.84;4972274;28;20102;-84
2023/10/15 11:47:24;;;;;;;1.48;1.20;;;;;;;16.77;49.72;101887.38;4958198;28;20141;-84
2023/10/15 11:50:22;;;;;;;1.10;0.52;;;;;;;16.24;49.69;101892.94;4973648;28;20049;-85
2023/10/15 11:53:02;;;;;;;1.25;0.98;;;;;;;16.65;47.08;101889.09;4975448;28;20042;-85
2023/10/15 11:56:16;;;;;;;1.52;0.80;;;;;;;16.08;49.17;101895.00;4965138;28;20491;-84
2023/10/15 11:59:00;;;;;;;2.17;1.00;;;;;;;16.14;48.11;101894.16;4915710;29;20123;-84
2023/10/15 12:01:26;;;;;;;2.17;0.75;;;;;;;17.40;46.37;101896.84;4920400;29;20040;-84
2023/10/15 12:04:25;;;;;;;2.05;0.90;;;;;;;16.75;48.01;101911.28;4916267;29;20077;-85
2023/10/15 12:07:50;;;;;;;1.40;0.80;;;;;;;17.47;46.43;101909.59;4910965;29;20098;-85
2023/10/15 12:10:28;;;;;;;1.58;0.70;;;;;;;16.69;44.88;101898.50;4904340;29;20040;-85
2023/10/15 12:13:14;;;;;;;1.92;1.00;;;;;;;16.82;48.02;101895.75;4905579;29;20047;-84
2023/10/15 12:15:48;;;;;;;1.60;1.00;;;;;;;16.61;46.31;101899.56;4909600;29;20494;-85
2023/10/15 12:18:24;;;;;;;0.65;0.65;;;;;;;15.80;48.53;101906.84;4911070;29;20085;-85
2023/10/15 12:20:55;;;;;;;1.40;1.05;;;;;;;16.23;49.42;101902.13;4910407;29;20092;-85
2023/10/15 12:23:27;;;;;;;2.40;0.70;;;;;;;16.46;46.55;101913.38;4894044;29;20087;-84
2023/10/15 12:29:49;;;;;;;2.38;0.77;;;;;;;16.63;48.96;101902.91;4913909;29;20135;-84
2023/10/15 12:32:35;;;;;;;3.30;0.77;;;;;;;17.64;47.50;101918.06;4905167;29;20336;-85
2023/10/15 12:35:23;;;;;;;2.03;0.70;;;;;;;17.50;45.08;101922.72;4920597;28;20429;-85
2023/10/15 12:38:26;;;;;;;0.80;0.70;;;;;;;18.15;45.18;101924.47;4963702;28;20133;-85
2023/10/15 12:43:50;;;;;;;1.10;0.80;;;;;;;17.92;44.63;101897.75;4932036;23;20048;-85
2023/10/15 12:46:47;;;;;;;1.60;0.90;;;;;;;17.44;44.21;101910.84;5123828;23;20112;-85
2023/10/15 12:49:49;;;;;;;2.55;0.98;;;;;;;15.16;50.43;101914.38;4896395;29;20384;-84
2023/10/15 12:52:27;;;;;;;3.95;0.93;;;;;;;14.22;52.91;101909.13;4902379;29;20445;-84
2023/10/15 12:58:25;;;;;;;3.88;1.20;;;;;;;14.14;55.96;101905.72;5697114;23;20067;-84
2023/10/15 13:03:28;;;;;;;3.72;1.48;;;;;;;13.62;56.79;101919.38;4943876;29;20063;-85
2023/10/15 13:05:53;;;;;;;2.70;0.90;;;;;;;13.37;58.94;101918.84;4954475;29;20043;-84
2023/10/15 13:11:18;;;;;;;3.65;1.17;;;;;;;12.83;63.01;101929.78;4944341;29;20044;-84
2023/10/15 13:13:43;;;;;;;2.72;0.90;;;;;;;12.18;59.31;101932.06;4929930;29;20102;-83
2023/10/15 13:16:18;;;;;;;2.80;0.90;;;;;;;11.65;62.44;101948.06;4951722;29;20042;-83
2023/10/15 13:18:53;;;;;;;1.95;0.60;;;;;;;11.30;63.12;101951.09;4950232;29;20078;-83
2023/10/15 13:21:21;;;;;;;2.42;0.70;;;;;;;10.97;65.77;101964.69;4945360;29;20121;-83
2023/10/15 13:23:47;;;;;;;4.35;1.10;;;;;;;10.30;69.04;101953.13;4931116;29;20043;-83
2023/10/15 13:26:47;;;;;;;2.90;1.05;;;;;;;9.93;73.13;101950.88;4948715;29;20034;-83
2023/10/15 13:29:26;;;;;;;1.80;1.02;;;;;;;9.75;76.08;101959.91;4948095;29;20046;-84
2023/10/15 13:32:51;;;;;;;3.45;1.15;;;;;;;9.66;80.86;101952.84;4954310;29;20103;-83
2023/10/15 13:35:31;;;;;;;1.95;1.00;;;;;;;9.67;83.76;101957.22;4932010;23;20151;-83
2023/10/15 13:38:09;;;;;;;2.50;1.08;;;;;;;9.65;83.40;101959.22;4932483;29;20027;-83
2023/10/15 13:40:44;;;;;;;0.90;0.80;;;;;;;10.86;80.75;101956.97;4935175;29;20031;-83
2023/10/15 13:43:19;;;;;;;2.07;1.03;;;;;;;12.18;74.70;101964.44;4917203;29;20488;-83
2023/10/15 13:46:25;;;;;;;1.73;0.88;;;;;;;12.58;68.24;101965.13;4933393;29;20040;-83
2023/10/15 13:49:01;;;;;;;1.98;1.13;;;;;;;12.85;69.39;101972.81;4948552;23;20061;-84
2023/10/15 13:51:26;;;;;;;1.65;0.90;;;;;;;13.03;66.60;101965.19;4953846;29;20490;-84
2023/10/15 13:54:19;;;;;;;2.08;1.05;;;;;;;12.31;72.45;101973.81;4968710;28;20027;-84
2023/10/15 14:03:20;;;;;;;3.10;1.38;;;;;;;11.80;70.83;101975.97;4923361;29;20051;-84
2023/10/15 14:09:23;;;;;;;1.75;0.88;;;;;;;11.17;75.26;101985.84;4923094;29;20567;-84